Time;durP1;ratioP1;P1;durP2;ratioP2;P2;SDS_P1;SDS_P2;PMS_P1;PMS_P2;Temp;Humidity;BMP_temperature;BMP_pressure;BME280_temperature;BME280_humidity;BME280_pressure;Samples;Min_cycle;Max_cycle;Signal;HPM_P1;HPM_P2
2023/05/19 00:00:15;;;;;;;7.25;2.33;;;;;;;;;;4939503;28;20042;-81
2023/05/19 00:02:45;;;;;;;10.95;2.95;;;;;;;;;;4958035;28;20039;-80
2023/05/19 00:05:13;;;;;;;11.68;2.17;;;;;;;;;;4957509;28;20051;-81
2023/05/19 00:07:42;;;;;;;8.25;2.13;;;;;;;;;;4940931;28;20063;-82
2023/05/19 00:10:09;;;;;;;7.20;2.03;;;;;;;;;;4939711;28;20539;-81
2023/05/19 00:12:36;;;;;;;11.68;2.30;;;;;;;;;;4950593;28;20047;-81
2023/05/19 00:15:03;;;;;;;7.68;1.52;;;;;;;;;;4953244;28;20062;-81
2023/05/19 00:17:33;;;;;;;12.05;2.13;;;;;;;;;;4953055;28;20465;-80
2023/05/19 00:20:00;;;;;;;7.35;2.22;;;;;;;;;;4967853;28;20083;-81
2023/05/19 00:22:27;;;;;;;7.03;2.33;;;;;;;;;;4953179;28;20047;-81
2023/05/19 00:24:53;;;;;;;6.20;2.33;;;;;;;;;;4955550;28;20051;-81
2023/05/19 00:27:20;;;;;;;9.27;3.38;;;;;;;;;;4970853;28;20111;-81
2023/05/19 00:29:50;;;;;;;7.30;2.38;;;;;;;;;;4956310;28;20098;-82
2023/05/19 00:32:17;;;;;;;7.00;2.20;;;;;;;;;;4956081;28;20117;-81
2023/05/19 00:34:43;;;;;;;11.43;2.42;;;;;;;;;;4939226;28;20476;-81
2023/05/19 00:37:10;;;;;;;10.68;2.38;;;;;;;;;;4954240;28;20539;-81
2023/05/19 00:39:39;;;;;;;14.07;2.75;;;;;;;;;;4956059;28;20043;-81
2023/05/19 00:42:06;;;;;;;11.15;2.78;;;;;;;;;;4958716;28;20381;-81
2023/05/19 00:44:38;;;;;;;7.05;2.08;;;;;;;;;;4963848;28;20117;-81
2023/05/19 00:47:09;;;;;;;12.73;2.50;;;;;;;;;;4966016;28;20043;-80
2023/05/19 00:49:36;;;;;;;10.68;2.50;;;;;;;;;;4967094;28;20149;-80
2023/05/19 00:52:04;;;;;;;10.05;2.30;;;;;;;;;;4981689;28;20051;-80
2023/05/19 00:54:32;;;;;;;11.35;2.33;;;;;;;;;;4968265;28;20042;-80
2023/05/19 00:57:00;;;;;;;8.70;2.22;;;;;;;;;;4980587;28;20074;-82
2023/05/19 00:59:26;;;;;;;10.05;2.10;;;;;;;;;;4960042;28;20047;-82
2023/05/19 01:01:53;;;;;;;11.15;2.35;;;;;;;;;;4970967;28;20047;-82
2023/05/19 01:04:20;;;;;;;9.00;2.47;;;;;;;;;;4969983;28;20082;-82
2023/05/19 01:06:56;;;;;;;8.15;2.33;;;;;;;;;;4956516;28;20054;-82
2023/05/19 01:09:23;;;;;;;7.88;1.90;;;;;;;;;;4955532;28;20051;-81
2023/05/19 01:11:50;;;;;;;7.70;2.35;;;;;;;;;;4967839;28;20427;-81
2023/05/19 01:14:17;;;;;;;6.00;1.88;;;;;;;;;;4952139;28;20436;-82
2023/05/19 01:16:53;;;;;;;10.93;2.65;;;;;;;;;;4970308;28;20043;-81
2023/05/19 01:19:20;;;;;;;12.55;2.53;;;;;;;;;;4954976;28;20102;-81
2023/05/19 01:21:53;;;;;;;11.38;2.47;;;;;;;;;;4954243;28;20053;-80
2023/05/19 01:24:38;;;;;;;8.55;2.30;;;;;;;;;;4952733;28;20050;-82
2023/05/19 01:27:24;;;;;;;7.67;2.20;;;;;;;;;;4968756;28;20054;-80
2023/05/19 01:29:50;;;;;;;8.90;2.47;;;;;;;;;;4969226;28;20063;-83
2023/05/19 01:32:19;;;;;;;10.68;2.50;;;;;;;;;;4979422;28;20062;-83
2023/05/19 01:34:47;;;;;;;8.82;2.70;;;;;;;;;;4974447;28;20487;-83
2023/05/19 01:37:15;;;;;;;9.40;3.03;;;;;;;;;;4937427;28;20464;-83
2023/05/19 01:39:42;;;;;;;14.43;3.60;;;;;;;;;;4968601;28;20115;-83
2023/05/19 01:42:09;;;;;;;9.88;3.22;;;;;;;;;;4969102;28;20069;-84
2023/05/19 01:44:36;;;;;;;13.20;3.35;;;;;;;;;;4954099;28;20063;-83
2023/05/19 01:47:03;;;;;;;10.52;2.90;;;;;;;;;;4969236;28;20043;-83
2023/05/19 01:49:30;;;;;;;12.38;3.28;;;;;;;;;;4952977;28;20043;-81
2023/05/19 01:51:57;;;;;;;13.52;3.08;;;;;;;;;;4952377;28;20051;-82
2023/05/19 01:54:24;;;;;;;8.88;2.60;;;;;;;;;;4953496;28;20135;-82
2023/05/19 01:57:05;;;;;;;8.80;2.35;;;;;;;;;;4952120;28;20047;-83
2023/05/19 01:59:42;;;;;;;6.30;2.08;;;;;;;;;;4951818;28;20061;-84
2023/05/19 02:02:32;;;;;;;6.90;2.60;;;;;;;;;;4968011;28;20066;-83
2023/05/19 02:05:09;;;;;;;8.05;2.85;;;;;;;;;;4941689;28;20047;-84
2023/05/19 02:07:53;;;;;;;9.40;2.90;;;;;;;;;;4947418;28;20051;-82
2023/05/19 02:10:21;;;;;;;;;;;;;;;;;;4964079;28;20675;-80
2023/05/19 02:12:49;;;;;;;8.60;3.22;;;;;;;;;;4953159;28;19988;-80
2023/05/19 02:15:19;;;;;;;7.65;2.92;;;;;;;;;;4954310;28;20043;-81
2023/05/19 02:17:50;;;;;;;10.38;3.05;;;;;;;;;;4940144;28;20055;-81
2023/05/19 02:20:17;;;;;;;9.38;3.20;;;;;;;;;;4982074;28;20051;-82
2023/05/19 02:22:44;;;;;;;9.13;2.83;;;;;;;;;;4940615;28;20055;-82
2023/05/19 02:25:11;;;;;;;7.53;2.83;;;;;;;;;;4956188;28;20050;-81
2023/05/19 02:27:39;;;;;;;8.18;2.78;;;;;;;;;;4941137;29;20138;-83
2023/05/19 02:30:07;;;;;;;8.52;3.15;;;;;;;;;;4963192;28;20457;-82
2023/05/19 02:32:35;;;;;;;8.50;3.22;;;;;;;;;;4973034;28;20039;-81
2023/05/19 02:35:02;;;;;;;10.55;2.85;;;;;;;;;;4955690;28;20058;-82
2023/05/19 02:37:29;;;;;;;11.63;2.80;;;;;;;;;;4956182;28;20043;-82
2023/05/19 02:39:57;;;;;;;8.82;2.83;;;;;;;;;;4972304;28;20126;-82
2023/05/19 02:42:23;;;;;;;12.25;3.10;;;;;;;;;;4960947;28;20142;-80
2023/05/19 02:44:51;;;;;;;6.00;2.42;;;;;;;;;;4959191;28;20381;-83
2023/05/19 02:47:17;;;;;;;12.40;3.20;;;;;;;;;;4948300;28;20878;-80
2023/05/19 02:49:44;;;;;;;10.63;3.60;;;;;;;;;;4970283;28;20121;-82
2023/05/19 02:52:11;;;;;;;8.82;2.95;;;;;;;;;;4952797;28;20040;-81
2023/05/19 02:54:38;;;;;;;9.73;2.65;;;;;;;;;;4936597;28;20039;-81
2023/05/19 02:57:05;;;;;;;8.98;3.20;;;;;;;;;;4952022;28;20061;-80
2023/05/19 02:59:32;;;;;;;6.22;2.60;;;;;;;;;;4940017;28;20059;-82
2023/05/19 03:02:00;;;;;;;6.32;2.58;;;;;;;;;;4971071;28;20131;-81
2023/05/19 03:04:27;;;;;;;14.70;2.97;;;;;;;;;;4952329;28;20051;-82
2023/05/19 03:06:54;;;;;;;7.68;3.08;;;;;;;;;;4945991;28;20031;-82
2023/05/19 03:09:21;;;;;;;6.15;2.53;;;;;;;;;;4959770;28;20130;-81
2023/05/19 03:11:48;;;;;;;8.82;2.90;;;;;;;;;;4954635;28;20086;-83
2023/05/19 03:14:14;;;;;;;10.40;3.20;;;;;;;;;;4971217;28;20118;-83
2023/05/19 03:16:41;;;;;;;8.10;2.95;;;;;;;;;;4955256;28;20047;-81
2023/05/19 03:19:08;;;;;;;11.00;3.50;;;;;;;;;;4954763;28;20073;-82
2023/05/19 03:21:35;;;;;;;9.90;2.83;;;;;;;;;;4954059;28;20521;-83
2023/05/19 03:24:02;;;;;;;9.85;2.90;;;;;;;;;;4954201;28;20048;-81
2023/05/19 03:26:29;;;;;;;11.27;2.95;;;;;;;;;;4954586;28;20058;-82
2023/05/19 03:28:56;;;;;;;11.30;3.28;;;;;;;;;;4956434;28;20122;-81
2023/05/19 03:31:22;;;;;;;12.70;3.30;;;;;;;;;;4955774;28;20050;-83
2023/05/19 03:33:49;;;;;;;7.15;3.10;;;;;;;;;;4955417;28;20055;-82
2023/05/19 03:36:16;;;;;;;7.50;3.13;;;;;;;;;;4971890;28;20137;-83
2023/05/19 03:38:43;;;;;;;8.45;3.20;;;;;;;;;;4954934;28;20456;-81
2023/05/19 03:41:09;;;;;;;12.38;3.30;;;;;;;;;;4969040;28;20055;-81
2023/05/19 03:43:36;;;;;;;10.75;3.17;;;;;;;;;;4953633;28;20047;-82
2023/05/19 03:46:05;;;;;;;11.45;3.13;;;;;;;;;;4953244;28;20061;-81
2023/05/19 03:48:52;;;;;;;8.55;3.20;;;;;;;;;;4954483;28;20122;-82
2023/05/19 03:51:57;;;;;;;8.05;3.38;;;;;;;;;;4963421;28;20044;-83
2023/05/19 03:54:31;;;;;;;10.82;3.08;;;;;;;;;;4939415;28;20047;-82
2023/05/19 03:56:58;;;;;;;11.07;3.78;;;;;;;;;;4973833;28;20055;-82
2023/05/19 03:59:24;;;;;;;8.35;3.10;;;;;;;;;;4957025;28;20051;-83
2023/05/19 04:01:51;;;;;;;8.98;3.22;;;;;;;;;;4965514;28;20050;-83
2023/05/19 04:04:18;;;;;;;10.00;3.20;;;;;;;;;;4955233;28;20047;-83
2023/05/19 04:06:45;;;;;;;9.60;3.50;;;;;;;;;;4938260;28;20070;-81
2023/05/19 04:09:13;;;;;;;10.43;3.33;;;;;;;;;;4954484;28;20044;-82
2023/05/19 04:11:40;;;;;;;17.73;3.85;;;;;;;;;;4970225;28;20082;-82
2023/05/19 04:14:07;;;;;;;8.95;3.10;;;;;;;;;;4953181;28;20650;-82
2023/05/19 04:16:35;;;;;;;9.80;3.40;;;;;;;;;;4953969;28;20047;-82
2023/05/19 04:19:01;;;;;;;7.70;3.30;;;;;;;;;;4953976;28;20050;-82
2023/05/19 04:21:28;;;;;;;12.50;3.80;;;;;;;;;;4937416;28;20035;-82
2023/05/19 04:23:57;;;;;;;9.35;3.47;;;;;;;;;;4960571;28;20027;-83
2023/05/19 04:26:25;;;;;;;12.23;3.42;;;;;;;;;;4940959;29;20059;-83
2023/05/19 04:28:52;;;;;;;9.38;4.00;;;;;;;;;;4970845;28;20047;-82
2023/05/19 04:31:20;;;;;;;11.05;3.50;;;;;;;;;;4960875;28;20118;-83
2023/05/19 04:33:48;;;;;;;9.82;3.60;;;;;;;;;;4936973;28;20135;-84
2023/05/19 04:36:17;;;;;;;9.38;4.00;;;;;;;;;;4952839;28;20446;-82
2023/05/19 04:38:45;;;;;;;11.18;3.70;;;;;;;;;;4953211;28;20411;-82
2023/05/19 04:41:12;;;;;;;7.68;3.30;;;;;;;;;;4942222;28;20038;-82
2023/05/19 04:43:40;;;;;;;11.35;3.95;;;;;;;;;;4944853;28;20566;-82
2023/05/19 04:46:09;;;;;;;9.63;3.65;;;;;;;;;;4937607;28;20405;-82
2023/05/19 04:48:41;;;;;;;10.55;3.65;;;;;;;;;;4985391;28;20104;-82
2023/05/19 04:51:08;;;;;;;14.55;3.55;;;;;;;;;;4954025;28;20059;-82
2023/05/19 04:53:35;;;;;;;12.40;3.78;;;;;;;;;;4964556;28;20055;-82
2023/05/19 04:56:04;;;;;;;9.73;4.28;;;;;;;;;;4953920;28;20058;-82
2023/05/19 04:58:32;;;;;;;9.77;4.20;;;;;;;;;;4956437;28;20043;-80
2023/05/19 05:00:59;;;;;;;12.68;4.50;;;;;;;;;;4972099;28;20047;-81
2023/05/19 05:03:26;;;;;;;7.78;3.45;;;;;;;;;;4940984;29;20051;-81
2023/05/19 05:05:55;;;;;;;11.07;3.75;;;;;;;;;;4975079;28;20063;-81
2023/05/19 05:08:22;;;;;;;11.00;3.45;;;;;;;;;;4972039;28;20053;-82
2023/05/19 05:10:50;;;;;;;9.15;3.00;;;;;;;;;;4966417;28;20495;-84
2023/05/19 05:13:17;;;;;;;12.98;3.15;;;;;;;;;;4952320;28;20133;-84
2023/05/19 05:15:44;;;;;;;10.30;2.83;;;;;;;;;;4944422;28;20125;-82
2023/05/19 05:18:12;;;;;;;10.65;2.85;;;;;;;;;;4986996;28;20047;-84
2023/05/19 05:20:39;;;;;;;7.40;2.53;;;;;;;;;;4970281;28;20075;-81
2023/05/19 05:23:08;;;;;;;7.80;3.10;;;;;;;;;;4980089;28;20872;-84
2023/05/19 05:25:38;;;;;;;7.22;2.92;;;;;;;;;;4967019;28;20069;-83
2023/05/19 05:28:05;;;;;;;14.48;2.80;;;;;;;;;;4966341;28;20051;-84
2023/05/19 05:30:35;;;;;;;10.25;2.65;;;;;;;;;;4975156;28;20054;-83
2023/05/19 05:33:03;;;;;;;5.72;2.83;;;;;;;;;;4987871;28;20050;-83
2023/05/19 05:35:36;;;;;;;9.20;2.90;;;;;;;;;;4977514;28;20105;-83
2023/05/19 05:38:05;;;;;;;9.98;2.90;;;;;;;;;;4963043;28;20061;-84
2023/05/19 05:40:35;;;;;;;8.20;2.90;;;;;;;;;;4982745;28;20703;-83
2023/05/19 05:43:03;;;;;;;10.05;2.80;;;;;;;;;;4977882;28;20043;-82
2023/05/19 05:45:35;;;;;;;6.63;2.78;;;;;;;;;;4966527;28;20058;-84
2023/05/19 05:48:02;;;;;;;8.57;2.78;;;;;;;;;;4964028;28;20074;-83
2023/05/19 05:50:31;;;;;;;6.20;2.50;;;;;;;;;;4965877;28;20047;-84
2023/05/19 05:53:00;;;;;;;7.05;2.40;;;;;;;;;;4980739;28;20489;-83
2023/05/19 05:55:26;;;;;;;8.32;2.88;;;;;;;;;;4982452;28;20054;-82
2023/05/19 05:57:55;;;;;;;7.35;2.40;;;;;;;;;;4984751;28;20058;-83
2023/05/19 06:00:22;;;;;;;5.82;2.38;;;;;;;;;;4978236;28;20050;-81
2023/05/19 06:02:51;;;;;;;6.80;2.70;;;;;;;;;;4983141;28;20047;-82
2023/05/19 06:05:18;;;;;;;5.07;2.25;;;;;;;;;;4966039;28;20652;-84
2023/05/19 06:07:46;;;;;;;6.95;2.40;;;;;;;;;;4983683;28;20185;-81
2023/05/19 06:10:18;;;;;;;8.07;2.40;;;;;;;;;;4985149;28;20046;-82
2023/05/19 06:12:45;;;;;;;4.65;2.45;;;;;;;;;;4961712;28;20051;-82
2023/05/19 06:15:13;;;;;;;7.47;2.55;;;;;;;;;;4983651;28;20066;-83
2023/05/19 06:18:02;;;;;;;4.10;2.25;;;;;;;;;;4948395;28;20055;-82
2023/05/19 06:20:29;;;;;;;8.57;2.40;;;;;;;;;;4966766;28;20131;-82
2023/05/19 06:22:58;;;;;;;7.80;2.25;;;;;;;;;;4958936;28;20055;-82
2023/05/19 06:25:27;;;;;;;8.43;2.60;;;;;;;;;;4933822;28;20144;-84
2023/05/19 06:27:55;;;;;;;5.53;2.47;;;;;;;;;;4966410;28;20070;-83
2023/05/19 06:30:22;;;;;;;5.47;2.15;;;;;;;;;;4959222;28;20048;-82
2023/05/19 06:33:03;;;;;;;5.35;2.10;;;;;;;;;;4934524;28;20051;-83
2023/05/19 06:35:30;;;;;;;5.95;2.53;;;;;;;;;;4948870;28;20520;-82
2023/05/19 06:37:57;;;;;;;7.07;2.30;;;;;;;;;;4944561;28;20058;-83
2023/05/19 06:40:23;;;;;;;8.60;2.50;;;;;;;;;;4940484;28;20043;-83
2023/05/19 06:42:52;;;;;;;7.35;2.60;;;;;;;;;;4961219;28;20046;-83
2023/05/19 06:45:27;;;;;;;7.53;2.40;;;;;;;;;;4963306;28;20053;-83
2023/05/19 06:47:57;;;;;;;7.97;2.60;;;;;;;;;;4962233;28;20787;-85
2023/05/19 06:50:24;;;;;;;7.28;2.20;;;;;;;;;;4958557;28;20051;-81
2023/05/19 06:52:51;;;;;;;7.30;2.50;;;;;;;;;;4978912;28;20054;-83
2023/05/19 06:55:20;;;;;;;8.65;2.90;;;;;;;;;;4947411;28;20062;-82
2023/05/19 06:57:48;;;;;;;5.15;2.33;;;;;;;;;;4964548;28;20053;-80
2023/05/19 07:00:15;;;;;;;7.30;2.50;;;;;;;;;;4957933;28;20639;-83
2023/05/19 07:02:47;;;;;;;4.55;2.40;;;;;;;;;;4917081;28;20043;-85
2023/05/19 07:05:14;;;;;;;4.80;2.50;;;;;;;;;;4973360;28;20043;-81
2023/05/19 07:07:44;;;;;;;8.80;2.70;;;;;;;;;;4978642;28;20078;-81
2023/05/19 07:10:16;;;;;;;5.05;2.47;;;;;;;;;;4959708;28;20508;-82
2023/05/19 07:13:03;;;;;;;;;;;;;;;;;;;;;
2023/05/19 07:15:51;;;;;;;6.32;2.40;;;;;;;;;;4930805;28;20622;-82
2023/05/19 07:19:13;;;;;;;7.22;2.90;;;;;;;;;;4906613;28;20051;-82
2023/05/19 07:22:25;;;;;;;5.85;2.63;;;;;;;;;;4910272;28;20545;-80
2023/05/19 07:25:25;;;;;;;10.00;2.85;;;;;;;;;;4930767;28;20051;-81
2023/05/19 07:27:58;;;;;;;5.80;2.60;;;;;;;;;;4938309;28;20150;-81
2023/05/19 07:30:26;;;;;;;8.80;2.60;;;;;;;;;;4964081;28;20043;-80
2023/05/19 07:32:53;;;;;;;5.25;2.22;;;;;;;;;;4961150;28;20050;-80
2023/05/19 07:35:21;;;;;;;6.85;2.70;;;;;;;;;;4954147;28;20051;-82
2023/05/19 07:37:48;;;;;;;6.22;2.60;;;;;;;;;;4951001;28;20066;-80
2023/05/19 07:40:14;;;;;;;6.85;2.55;;;;;;;;;;4963074;28;20106;-79
2023/05/19 07:42:41;;;;;;;5.82;2.47;;;;;;;;;;4950368;28;20153;-79
2023/05/19 07:45:08;;;;;;;6.68;3.03;;;;;;;;;;4961857;28;20579;-79
2023/05/19 07:47:34;;;;;;;6.72;2.88;;;;;;;;;;4960027;28;20102;-80
2023/05/19 07:50:02;;;;;;;5.28;2.80;;;;;;;;;;4961019;28;20055;-80
2023/05/19 07:52:28;;;;;;;6.85;3.10;;;;;;;;;;4964491;28;20138;-80
2023/05/19 07:54:58;;;;;;;6.85;3.42;;;;;;;;;;4959694;28;20051;-81
2023/05/19 07:57:24;;;;;;;6.13;3.08;;;;;;;;;;4951128;28;20118;-79
2023/05/19 07:59:51;;;;;;;6.97;3.25;;;;;;;;;;4967035;28;20067;-80
2023/05/19 08:02:58;;;;;;;;;;;;;;;;;;;;;
2023/05/19 08:05:53;;;;;;;5.38;3.03;;;;;;;;;;4938895;28;20063;-80
2023/05/19 08:11:29;;;;;;;6.93;3.30;;;;;;;;;;4923162;28;20043;-81
2023/05/19 08:14:12;;;;;;;9.77;3.58;;;;;;;;;;4943319;28;20491;-82
2023/05/19 08:17:13;;;;;;;9.13;3.10;;;;;;;;;;4951063;28;20150;-79
2023/05/19 08:20:25;;;;;;;9.57;3.05;;;;;;;;;;4925227;28;20393;-79
2023/05/19 08:23:09;;;;;;;;;;;;;;;;;;;;;
2023/05/19 08:26:01;;;;;;;8.93;3.35;;;;;;;;;;4918356;28;20050;-81
2023/05/19 08:29:31;;;;;;;9.15;3.17;;;;;;;;;;4860108;29;20137;-81
2023/05/19 08:33:02;;;;;;;7.55;3.17;;;;;;;;;;4863183;29;20663;-80
2023/05/19 08:36:12;;;;;;;6.72;3.17;;;;;;;;;;4875843;29;20060;-80
2023/05/19 08:38:43;;;;;;;13.77;3.70;;;;;;;;;;4877865;28;20052;-79
2023/05/19 08:41:17;;;;;;;7.90;2.92;;;;;;;;;;4922842;28;20485;-82
2023/05/19 08:45:24;;;;;;;;;;;;;;;;;;;;;
2023/05/19 08:53:20;;;;;;;;;;;;;;;;;;;;;
2023/05/19 09:00:22;;;;;;;5.20;2.92;;;;;;;;;;4819463;29;20299;-80
2023/05/19 09:03:01;;;;;;;5.55;2.95;;;;;;;;;;4933666;28;20463;-81
2023/05/19 09:05:46;;;;;;;7.68;3.13;;;;;;;;;;4942179;28;20050;-81
2023/05/19 09:08:13;;;;;;;5.55;2.70;;;;;;;;;;4954507;28;20050;-81
2023/05/19 09:10:44;;;;;;;6.88;2.97;;;;;;;;;;4964557;28;20047;-81
2023/05/19 09:13:16;;;;;;;6.93;2.90;;;;;;;;;;4908259;28;20051;-82
2023/05/19 09:15:57;;;;;;;;;;;;;;;;;;;;;
2023/05/19 09:19:10;;;;;;;;;;;;;;;;;;;;;
2023/05/19 09:21:58;;;;;;;6.40;2.50;;;;;;;;;;4944171;28;20051;-79
2023/05/19 09:24:24;;;;;;;7.18;3.00;;;;;;;;;;4964686;28;20062;-74
2023/05/19 09:26:53;;;;;;;5.03;3.05;;;;;;;;;;4953943;28;20106;-82
2023/05/19 09:29:21;;;;;;;6.93;3.25;;;;;;;;;;4950895;28;20047;-82
2023/05/19 09:31:49;;;;;;;9.90;3.50;;;;;;;;;;4962185;28;20043;-79
2023/05/19 09:34:16;;;;;;;7.88;3.38;;;;;;;;;;4956256;28;20053;-83
2023/05/19 09:36:43;;;;;;;9.32;3.08;;;;;;;;;;4950129;28;20727;-77
2023/05/19 09:39:16;;;;;;;5.63;3.20;;;;;;;;;;4967780;28;20133;-81
2023/05/19 09:41:46;;;;;;;8.40;3.00;;;;;;;;;;4967764;28;20283;-79
2023/05/19 09:44:21;;;;;;;5.72;2.67;;;;;;;;;;4948321;28;20061;-82
2023/05/19 09:46:49;;;;;;;6.97;2.80;;;;;;;;;;4932455;28;20051;-77
2023/05/19 09:49:19;;;;;;;6.20;2.97;;;;;;;;;;4950859;28;20046;-71
2023/05/19 09:51:53;;;;;;;7.55;2.70;;;;;;;;;;4963683;28;20841;-81
2023/05/19 09:54:22;;;;;;;7.00;3.10;;;;;;;;;;4975037;28;20084;-80
2023/05/19 09:56:58;;;;;;;6.05;2.60;;;;;;;;;;4980964;28;20904;-80
2023/05/19 09:59:25;;;;;;;9.35;2.78;;;;;;;;;;4965425;28;20074;-81
2023/05/19 10:01:55;;;;;;;9.95;2.97;;;;;;;;;;4959378;28;20059;-78
2023/05/19 10:04:22;;;;;;;5.22;2.67;;;;;;;;;;4978168;28;20054;-79
2023/05/19 10:06:53;;;;;;;6.70;2.80;;;;;;;;;;4961948;28;20051;-77
2023/05/19 10:09:25;;;;;;;8.32;2.70;;;;;;;;;;4955814;28;20046;-73
2023/05/19 10:11:53;;;;;;;7.97;3.00;;;;;;;;;;4953275;28;20405;-74
2023/05/19 10:14:23;;;;;;;3.53;2.33;;;;;;;;;;4975392;28;20606;-77
2023/05/19 10:16:53;;;;;;;6.00;2.70;;;;;;;;;;4964081;28;20493;-72
2023/05/19 10:19:23;;;;;;;8.98;2.45;;;;;;;;;;4958501;28;20055;-75
2023/05/19 10:21:50;;;;;;;3.40;2.17;;;;;;;;;;4959970;28;20047;-78
2023/05/19 10:24:18;;;;;;;5.65;2.30;;;;;;;;;;4948465;28;20062;-80
2023/05/19 10:26:46;;;;;;;10.27;2.33;;;;;;;;;;4963380;28;20055;-78
2023/05/19 10:29:15;;;;;;;9.57;2.50;;;;;;;;;;4955611;28;20051;-80
2023/05/19 10:31:43;;;;;;;8.45;2.53;;;;;;;;;;4959127;28;20051;-81
2023/05/19 10:34:12;;;;;;;6.93;2.85;;;;;;;;;;4965972;28;20055;-80
2023/05/19 10:36:49;;;;;;;6.03;2.38;;;;;;;;;;4950694;28;20519;-79
2023/05/19 10:39:24;;;;;;;5.65;2.65;;;;;;;;;;4960578;28;20050;-79
2023/05/19 10:41:50;;;;;;;6.88;2.60;;;;;;;;;;4964272;28;20058;-82
2023/05/19 10:44:23;;;;;;;7.22;2.90;;;;;;;;;;4970031;28;20626;-81
2023/05/19 10:46:50;;;;;;;7.78;2.80;;;;;;;;;;4964131;28;20055;-81
2023/05/19 10:49:22;;;;;;;8.05;2.78;;;;;;;;;;4967563;28;20510;-81
2023/05/19 10:51:50;;;;;;;8.70;2.40;;;;;;;;;;4984400;28;20070;-81
2023/05/19 10:54:24;;;;;;;4.03;2.38;;;;;;;;;;4961789;28;20078;-83
2023/05/19 10:56:55;;;;;;;8.02;2.50;;;;;;;;;;4964916;28;20062;-82
2023/05/19 10:59:34;;;;;;;5.05;2.72;;;;;;;;;;4983896;28;20038;-81
2023/05/19 11:02:04;;;;;;;7.97;2.95;;;;;;;;;;4975787;28;20055;-84
2023/05/19 11:04:49;;;;;;;8.00;2.80;;;;;;;;;;5005632;28;20114;-84
2023/05/19 11:07:23;;;;;;;7.15;2.40;;;;;;;;;;4980777;28;20451;-82
2023/05/19 11:09:50;;;;;;;11.15;2.70;;;;;;;;;;4975711;28;20047;-82
2023/05/19 11:12:21;;;;;;;5.45;2.58;;;;;;;;;;4977118;28;20057;-84
2023/05/19 11:14:53;;;;;;;4.97;2.45;;;;;;;;;;4988553;28;20432;-82
2023/05/19 11:17:22;;;;;;;5.90;2.80;;;;;;;;;;4972476;28;20069;-82
2023/05/19 11:19:53;;;;;;;7.63;2.70;;;;;;;;;;4945339;28;20477;-83
2023/05/19 11:22:35;;;;;;;6.82;2.15;;;;;;;;;;4934366;28;20449;-83
2023/05/19 11:25:02;;;;;;;5.97;1.98;;;;;;;;;;4952952;28;20058;-84
2023/05/19 11:27:32;;;;;;;5.03;1.80;;;;;;;;;;4951633;28;20047;-84
2023/05/19 11:30:10;;;;;;;7.10;2.42;;;;;;;;;;4979339;28;20037;-84
2023/05/19 11:32:41;;;;;;;6.20;2.10;;;;;;;;;;4939866;28;20047;-86
2023/05/19 11:35:08;;;;;;;8.02;2.63;;;;;;;;;;4967140;28;20052;-82
2023/05/19 11:37:35;;;;;;;11.48;2.65;;;;;;;;;;4969455;28;20063;-83
2023/05/19 11:40:04;;;;;;;7.40;2.33;;;;;;;;;;4954028;28;20129;-85
2023/05/19 11:42:31;;;;;;;6.68;2.80;;;;;;;;;;4952239;28;20508;-83
2023/05/19 11:44:57;;;;;;;4.82;2.45;;;;;;;;;;4957848;28;20058;-82
2023/05/19 11:47:24;;;;;;;7.68;2.60;;;;;;;;;;4950337;28;20036;-88
2023/05/19 11:49:51;;;;;;;4.95;2.55;;;;;;;;;;4966014;28;20093;-86
2023/05/19 11:52:28;;;;;;;8.57;2.40;;;;;;;;;;4932146;28;20327;-83
2023/05/19 11:54:55;;;;;;;10.65;2.72;;;;;;;;;;4938265;28;20804;-81
2023/05/19 11:57:22;;;;;;;6.53;2.58;;;;;;;;;;4932379;28;20054;-84
2023/05/19 11:59:51;;;;;;;4.82;2.60;;;;;;;;;;4949930;28;20043;-83
2023/05/19 12:02:20;;;;;;;6.00;2.58;;;;;;;;;;4947270;28;20065;-85
2023/05/19 12:04:49;;;;;;;5.15;2.28;;;;;;;;;;4947089;28;20099;-82
2023/05/19 12:07:17;;;;;;;7.32;2.75;;;;;;;;;;4947951;28;20073;-84
2023/05/19 12:09:47;;;;;;;10.35;2.47;;;;;;;;;;4956354;28;20059;-82
2023/05/19 12:12:18;;;;;;;10.43;2.60;;;;;;;;;;4958978;28;20673;-79
2023/05/19 12:14:45;;;;;;;5.78;2.80;;;;;;;;;;4964451;28;20094;-83
2023/05/19 12:17:12;;;;;;;8.05;2.58;;;;;;;;;;4929343;28;20047;-76
2023/05/19 12:19:43;;;;;;;6.88;2.70;;;;;;;;;;4958526;28;20424;-83
2023/05/19 12:22:10;;;;;;;6.30;2.80;;;;;;;;;;4945726;28;20451;-82
2023/05/19 12:24:37;;;;;;;6.40;2.75;;;;;;;;;;4939655;28;20066;-75
2023/05/19 12:27:21;;;;;;;5.38;2.50;;;;;;;;;;4949656;28;20070;-80
2023/05/19 12:29:49;;;;;;;4.72;2.60;;;;;;;;;;4965797;28;20066;-81
2023/05/19 12:32:15;;;;;;;9.70;2.75;;;;;;;;;;4956098;28;20074;-77
2023/05/19 12:34:42;;;;;;;4.63;2.45;;;;;;;;;;4953500;28;20130;-79
2023/05/19 12:37:09;;;;;;;7.10;2.70;;;;;;;;;;4980849;28;20051;-78
2023/05/19 12:39:36;;;;;;;8.52;2.55;;;;;;;;;;4984716;28;20054;-80
2023/05/19 12:42:09;;;;;;;5.65;2.53;;;;;;;;;;4970917;28;20055;-80
2023/05/19 12:44:54;;;;;;;11.15;2.70;;;;;;;;;;4951330;28;20043;-80
2023/05/19 12:47:28;;;;;;;5.07;2.58;;;;;;;;;;4930144;28;20102;-80
2023/05/19 12:49:55;;;;;;;4.80;2.85;;;;;;;;;;4929993;28;20051;-77
2023/05/19 12:52:22;;;;;;;6.07;2.75;;;;;;;;;;4959089;28;20047;-77
2023/05/19 12:54:49;;;;;;;6.40;2.72;;;;;;;;;;4952452;28;20122;-80
2023/05/19 12:57:16;;;;;;;7.78;2.40;;;;;;;;;;4953457;28;20054;-80
2023/05/19 12:59:43;;;;;;;6.15;2.75;;;;;;;;;;4989215;28;20043;-78
2023/05/19 13:02:09;;;;;;;6.30;2.85;;;;;;;;;;4970627;28;20050;-79
2023/05/19 13:04:36;;;;;;;4.75;2.85;;;;;;;;;;4984990;28;20141;-79
2023/05/19 13:07:03;;;;;;;7.93;2.80;;;;;;;;;;4963899;28;20356;-79
2023/05/19 13:09:33;;;;;;;4.80;3.25;;;;;;;;;;4953905;28;20047;-81
2023/05/19 13:12:00;;;;;;;4.65;2.65;;;;;;;;;;4935235;28;20141;-82
2023/05/19 13:14:27;;;;;;;3.78;2.45;;;;;;;;;;4974528;28;20054;-81
2023/05/19 13:16:54;;;;;;;7.15;2.97;;;;;;;;;;4982203;28;20071;-81
2023/05/19 13:19:20;;;;;;;9.13;2.50;;;;;;;;;;4968240;28;20055;-79
2023/05/19 13:21:51;;;;;;;6.20;2.25;;;;;;;;;;4981279;28;20042;-84
2023/05/19 13:24:18;;;;;;;5.05;2.20;;;;;;;;;;4995920;28;20043;-81
2023/05/19 13:26:44;;;;;;;3.90;2.42;;;;;;;;;;4966545;28;20065;-80
2023/05/19 13:29:11;;;;;;;5.95;2.20;;;;;;;;;;4964816;28;20054;-83
2023/05/19 13:31:38;;;;;;;7.38;2.90;;;;;;;;;;4954712;28;20113;-81
2023/05/19 13:34:08;;;;;;;7.88;2.17;;;;;;;;;;4985923;28;20055;-79
2023/05/19 13:36:35;;;;;;;6.72;2.47;;;;;;;;;;4970556;28;20414;-80
2023/05/19 13:39:02;;;;;;;2.95;2.03;;;;;;;;;;4966589;28;20054;-79
2023/05/19 13:41:28;;;;;;;6.68;2.47;;;;;;;;;;4980009;28;20077;-80
2023/05/19 13:43:58;;;;;;;7.25;2.40;;;;;;;;;;4969056;28;20423;-80
2023/05/19 13:47:07;;;;;;;4.82;2.78;;;;;;;;;;4967252;28;20086;-82
2023/05/19 13:49:35;;;;;;;7.55;2.78;;;;;;;;;;4968360;28;20712;-84
2023/05/19 13:52:02;;;;;;;4.72;2.50;;;;;;;;;;4971099;28;20057;-84
2023/05/19 13:54:32;;;;;;;5.45;2.70;;;;;;;;;;4975236;28;20042;-81
2023/05/19 13:57:00;;;;;;;7.43;2.72;;;;;;;;;;4982240;28;20053;-83
2023/05/19 13:59:27;;;;;;;6.50;2.50;;;;;;;;;;4975052;28;20039;-83
2023/05/19 14:01:53;;;;;;;8.60;2.78;;;;;;;;;;4968180;28;20053;-82
2023/05/19 14:04:20;;;;;;;6.82;2.20;;;;;;;;;;4972023;28;20451;-85
2023/05/19 14:06:47;;;;;;;6.97;2.30;;;;;;;;;;4972543;28;20459;-84
2023/05/19 14:09:14;;;;;;;5.50;2.28;;;;;;;;;;4969123;28;20058;-83
2023/05/19 14:11:41;;;;;;;5.13;2.78;;;;;;;;;;4964701;28;20137;-79
2023/05/19 14:14:08;;;;;;;10.95;2.30;;;;;;;;;;4966919;28;20062;-83
2023/05/19 14:16:39;;;;;;;8.60;2.50;;;;;;;;;;4983645;28;20070;-85
2023/05/19 14:19:06;;;;;;;5.57;2.45;;;;;;;;;;4968247;28;20084;-82
2023/05/19 14:21:33;;;;;;;5.88;2.58;;;;;;;;;;4941807;28;20039;-82
2023/05/19 14:24:00;;;;;;;11.27;2.42;;;;;;;;;;4992537;28;20130;-82
2023/05/19 14:26:26;;;;;;;6.80;2.60;;;;;;;;;;4972158;28;20055;-83
2023/05/19 14:28:55;;;;;;;9.05;2.25;;;;;;;;;;4963027;28;20122;-82
2023/05/19 14:31:22;;;;;;;5.70;2.53;;;;;;;;;;4942849;28;20051;-81
2023/05/19 14:33:49;;;;;;;9.70;2.70;;;;;;;;;;4951335;28;20058;-81
2023/05/19 14:36:16;;;;;;;6.65;2.17;;;;;;;;;;4942948;28;20412;-79
2023/05/19 14:38:43;;;;;;;5.35;2.15;;;;;;;;;;4946313;28;20757;-71
2023/05/19 14:41:09;;;;;;;3.35;2.50;;;;;;;;;;4951873;28;20055;-76
2023/05/19 14:43:36;;;;;;;6.18;2.38;;;;;;;;;;4952817;28;20393;-79
2023/05/19 14:46:02;;;;;;;8.43;2.70;;;;;;;;;;4951837;28;20055;-79
2023/05/19 14:48:29;;;;;;;7.38;2.47;;;;;;;;;;4947764;28;20062;-78
2023/05/19 14:50:55;;;;;;;5.03;2.45;;;;;;;;;;4948151;28;20053;-77
2023/05/19 14:53:22;;;;;;;8.05;2.83;;;;;;;;;;4966405;28;20518;-84
2023/05/19 14:55:49;;;;;;;13.43;2.47;;;;;;;;;;4961802;28;20047;-79
2023/05/19 14:58:15;;;;;;;5.18;2.30;;;;;;;;;;4972185;28;20125;-76
2023/05/19 15:00:56;;;;;;;7.88;2.15;;;;;;;;;;4966440;28;20416;-77
2023/05/19 15:03:22;;;;;;;6.15;2.97;;;;;;;;;;4967838;28;20039;-81
2023/05/19 15:05:51;;;;;;;11.10;3.15;;;;;;;;;;4965369;28;20042;-79
2023/05/19 15:08:18;;;;;;;6.07;2.72;;;;;;;;;;4959801;28;20363;-82
2023/05/19 15:10:47;;;;;;;9.70;2.58;;;;;;;;;;4962823;28;20047;-81
2023/05/19 15:13:14;;;;;;;6.13;3.03;;;;;;;;;;4968076;28;20050;-83
2023/05/19 15:15:41;;;;;;;4.32;2.63;;;;;;;;;;4953819;28;20178;-81
2023/05/19 15:18:08;;;;;;;7.28;2.65;;;;;;;;;;4988853;28;20047;-82
2023/05/19 15:20:34;;;;;;;6.80;3.03;;;;;;;;;;4972041;28;20455;-82
2023/05/19 15:23:02;;;;;;;7.20;3.00;;;;;;;;;;4975417;28;20051;-80